sensor_id;sensor_type;location;lat;lon;timestamp;temperature;humidity
5759;DHT22;2904;48.788;9.196;2022-07-29T00:02:08;20.90;99.90
5759;DHT22;2904;48.788;9.196;2022-07-29T00:04:37;20.90;99.90
5759;DHT22;2904;48.788;9.196;2022-07-29T00:07:03;20.80;99.90
5759;DHT22;2904;48.788;9.196;2022-07-29T00:09:29;20.80;99.90
5759;DHT22;2904;48.788;9.196;2022-07-29T00:11:58;20.80;99.90
5759;DHT22;2904;48.788;9.196;2022-07-29T00:14:24;20.90;99.90
5759;DHT22;2904;48.788;9.196;2022-07-29T00:16:50;20.90;99.90
5759;DHT22;2904;48.788;9.196;2022-07-29T00:19:16;20.90;99.90
5759;DHT22;2904;48.788;9.196;2022-07-29T00:21:42;20.90;99.90
5759;DHT22;2904;48.788;9.196;2022-07-29T00:24:08;20.90;99.90
5759;DHT22;2904;48.788;9.196;2022-07-29T00:26:34;20.90;99.90
5759;DHT22;2904;48.788;9.196;2022-07-29T00:29:00;20.90;99.90
5759;DHT22;2904;48.788;9.196;2022-07-29T00:31:26;20.90;99.90
5759;DHT22;2904;48.788;9.196;2022-07-29T00:33:52;20.90;99.90
5759;DHT22;2904;48.788;9.196;2022-07-29T00:36:18;20.90;99.90
5759;DHT22;2904;48.788;9.196;2022-07-29T00:38:43;20.90;99.90
5759;DHT22;2904;48.788;9.196;2022-07-29T00:41:11;20.90;99.90
5759;DHT22;2904;48.788;9.196;2022-07-29T00:43:37;20.90;99.90
5759;DHT22;2904;48.788;9.196;2022-07-29T00:46:03;20.80;99.90
5759;DHT22;2904;48.788;9.196;2022-07-29T00:48:29;20.80;99.90
5759;DHT22;2904;48.788;9.196;2022-07-29T00:50:57;20.80;99.90
5759;DHT22;2904;48.788;9.196;2022-07-29T00:53:24;20.70;99.90
5759;DHT22;2904;48.788;9.196;2022-07-29T00:55:50;20.70;99.90
5759;DHT22;2904;48.788;9.196;2022-07-29T00:58:16;20.70;99.90
5759;DHT22;2904;48.788;9.196;2022-07-29T01:00:42;20.70;99.90
5759;DHT22;2904;48.788;9.196;2022-07-29T01:03:08;20.80;99.90
5759;DHT22;2904;48.788;9.196;2022-07-29T01:05:34;20.70;99.90
5759;DHT22;2904;48.788;9.196;2022-07-29T01:08:00;20.70;99.90
5759;DHT22;2904;48.788;9.196;2022-07-29T01:10:27;20.80;99.90
5759;DHT22;2904;48.788;9.196;2022-07-29T01:12:55;20.80;99.90
5759;DHT22;2904;48.788;9.196;2022-07-29T01:15:23;20.80;99.90
5759;DHT22;2904;48.788;9.196;2022-07-29T01:18:03;20.80;99.90
5759;DHT22;2904;48.788;9.196;2022-07-29T01:24:09;20.80;99.90
5759;DHT22;2904;48.788;9.196;2022-07-29T01:29:41;20.90;99.90
5759;DHT22;2904;48.788;9.196;2022-07-29T01:32:12;20.80;99.90
5759;DHT22;2904;48.788;9.196;2022-07-29T01:35:05;20.90;99.90
5759;DHT22;2904;48.788;9.196;2022-07-29T01:37:43;20.80;99.90
5759;DHT22;2904;48.788;9.196;2022-07-29T01:40:27;20.80;99.90
5759;DHT22;2904;48.788;9.196;2022-07-29T01:42:56;20.80;99.90
5759;DHT22;2904;48.788;9.196;2022-07-29T01:45:38;20.80;99.90
5759;DHT22;2904;48.788;9.196;2022-07-29T01:48:16;20.80;99.90
5759;DHT22;2904;48.788;9.196;2022-07-29T01:50:53;20.80;99.90
5759;DHT22;2904;48.788;9.196;2022-07-29T01:53:35;20.80;99.90
5759;DHT22;2904;48.788;9.196;2022-07-29T01:56:02;20.80;99.90
5759;DHT22;2904;48.788;9.196;2022-07-29T01:58:31;20.80;99.90
5759;DHT22;2904;48.788;9.196;2022-07-29T02:00:58;20.80;99.90
5759;DHT22;2904;48.788;9.196;2022-07-29T02:03:25;20.80;99.90
5759;DHT22;2904;48.788;9.196;2022-07-29T02:05:56;20.80;99.90
5759;DHT22;2904;48.788;9.196;2022-07-29T02:08:24;20.70;99.90
5759;DHT22;2904;48.788;9.196;2022-07-29T02:10:51;20.70;99.90
5759;DHT22;2904;48.788;9.196;2022-07-29T02:13:20;20.70;99.90
5759;DHT22;2904;48.788;9.196;2022-07-29T02:15:50;20.60;99.90
5759;DHT22;2904;48.788;9.196;2022-07-29T02:18:17;20.50;99.90
5759;DHT22;2904;48.788;9.196;2022-07-29T02:20:49;20.50;99.90
5759;DHT22;2904;48.788;9.196;2022-07-29T02:23:18;20.40;99.90
5759;DHT22;2904;48.788;9.196;2022-07-29T02:25:51;20.30;99.90
5759;DHT22;2904;48.788;9.196;2022-07-29T02:28:19;20.30;99.90
5759;DHT22;2904;48.788;9.196;2022-07-29T02:30:46;20.20;99.90
5759;DHT22;2904;48.788;9.196;2022-07-29T02:33:14;20.20;99.90
5759;DHT22;2904;48.788;9.196;2022-07-29T02:35:41;20.10;99.90
5759;DHT22;2904;48.788;9.196;2022-07-29T02:38:10;20.20;99.90
5759;DHT22;2904;48.788;9.196;2022-07-29T02:40:57;20.10;99.90
5759;DHT22;2904;48.788;9.196;2022-07-29T02:43:24;20.10;99.90
5759;DHT22;2904;48.788;9.196;2022-07-29T02:45:53;20.00;99.90
5759;DHT22;2904;48.788;9.196;2022-07-29T02:48:24;20.00;99.90
5759;DHT22;2904;48.788;9.196;2022-07-29T02:51:01;20.00;99.90
5759;DHT22;2904;48.788;9.196;2022-07-29T02:53:30;20.00;99.90
5759;DHT22;2904;48.788;9.196;2022-07-29T02:56:25;20.00;99.90
5759;DHT22;2904;48.788;9.196;2022-07-29T02:58:58;20.00;99.90
5759;DHT22;2904;48.788;9.196;2022-07-29T03:01:27;20.00;99.90
5759;DHT22;2904;48.788;9.196;2022-07-29T03:03:55;20.00;99.90
5759;DHT22;2904;48.788;9.196;2022-07-29T03:06:23;20.00;99.90
5759;DHT22;2904;48.788;9.196;2022-07-29T03:08:51;19.90;99.90
5759;DHT22;2904;48.788;9.196;2022-07-29T03:11:17;19.90;99.90
5759;DHT22;2904;48.788;9.196;2022-07-29T03:13:44;19.80;99.90
5759;DHT22;2904;48.788;9.196;2022-07-29T03:16:10;19.80;99.90
5759;DHT22;2904;48.788;9.196;2022-07-29T03:18:37;19.80;99.90
5759;DHT22;2904;48.788;9.196;2022-07-29T03:21:04;19.80;99.90
5759;DHT22;2904;48.788;9.196;2022-07-29T03:23:29;19.80;99.90
5759;DHT22;2904;48.788;9.196;2022-07-29T03:25:55;19.90;99.90
5759;DHT22;2904;48.788;9.196;2022-07-29T03:28:22;19.80;99.90
5759;DHT22;2904;48.788;9.196;2022-07-29T03:30:48;19.80;99.90
5759;DHT22;2904;48.788;9.196;2022-07-29T03:33:14;19.80;99.90
5759;DHT22;2904;48.788;9.196;2022-07-29T03:35:40;19.80;99.90
5759;DHT22;2904;48.788;9.196;2022-07-29T03:38:06;19.70;99.90
5759;DHT22;2904;48.788;9.196;2022-07-29T03:40:53;19.80;99.90
5759;DHT22;2904;48.788;9.196;2022-07-29T03:43:19;19.80;99.90
5759;DHT22;2904;48.788;9.196;2022-07-29T03:45:51;19.80;99.90
5759;DHT22;2904;48.788;9.196;2022-07-29T03:48:21;19.80;99.90
5759;DHT22;2904;48.788;9.196;2022-07-29T03:50:50;19.90;99.90
5759;DHT22;2904;48.788;9.196;2022-07-29T03:53:16;19.90;99.90
5759;DHT22;2904;48.788;9.196;2022-07-29T03:55:45;19.90;99.90
5759;DHT22;2904;48.788;9.196;2022-07-29T03:58:11;19.90;99.90
5759;DHT22;2904;48.788;9.196;2022-07-29T04:00:38;19.90;99.90
5759;DHT22;2904;48.788;9.196;2022-07-29T04:03:05;19.90;99.90
5759;DHT22;2904;48.788;9.196;2022-07-29T04:05:30;19.90;99.90
5759;DHT22;2904;48.788;9.196;2022-07-29T04:07:56;19.90;99.90
5759;DHT22;2904;48.788;9.196;2022-07-29T04:10:22;19.90;99.90
5759;DHT22;2904;48.788;9.196;2022-07-29T04:12:50;19.90;99.90
5759;DHT22;2904;48.788;9.196;2022-07-29T04:15:16;19.90;99.90
5759;DHT22;2904;48.788;9.196;2022-07-29T04:17:42;20.00;99.90
5759;DHT22;2904;48.788;9.196;2022-07-29T04:20:09;20.00;99.90
5759;DHT22;2904;48.788;9.196;2022-07-29T04:22:35;20.00;99.90
5759;DHT22;2904;48.788;9.196;2022-07-29T04:25:00;20.00;99.90
5759;DHT22;2904;48.788;9.196;2022-07-29T04:27:26;20.00;99.90
5759;DHT22;2904;48.788;9.196;2022-07-29T04:29:52;20.00;99.90
5759;DHT22;2904;48.788;9.196;2022-07-29T04:32:17;20.00;99.90
5759;DHT22;2904;48.788;9.196;2022-07-29T04:34:43;20.00;99.90
5759;DHT22;2904;48.788;9.196;2022-07-29T04:37:10;20.00;99.90
5759;DHT22;2904;48.788;9.196;2022-07-29T04:39:36;20.00;99.90
5759;DHT22;2904;48.788;9.196;2022-07-29T04:42:02;20.00;99.90
5759;DHT22;2904;48.788;9.196;2022-07-29T04:44:28;19.90;99.90
5759;DHT22;2904;48.788;9.196;2022-07-29T04:46:54;19.90;99.90
5759;DHT22;2904;48.788;9.196;2022-07-29T04:49:19;20.00;99.90
5759;DHT22;2904;48.788;9.196;2022-07-29T04:51:45;20.00;99.90
5759;DHT22;2904;48.788;9.196;2022-07-29T04:54:10;20.00;99.90
5759;DHT22;2904;48.788;9.196;2022-07-29T04:56:36;20.00;99.90
5759;DHT22;2904;48.788;9.196;2022-07-29T04:59:02;20.00;99.90
5759;DHT22;2904;48.788;9.196;2022-07-29T05:01:27;20.10;99.90
5759;DHT22;2904;48.788;9.196;2022-07-29T05:03:53;20.20;99.90
5759;DHT22;2904;48.788;9.196;2022-07-29T05:06:19;20.20;99.90
5759;DHT22;2904;48.788;9.196;2022-07-29T05:08:44;20.30;99.90
5759;DHT22;2904;48.788;9.196;2022-07-29T05:11:10;20.30;99.90
5759;DHT22;2904;48.788;9.196;2022-07-29T05:13:36;20.40;99.90
5759;DHT22;2904;48.788;9.196;2022-07-29T05:16:02;20.40;99.90
5759;DHT22;2904;48.788;9.196;2022-07-29T05:18:28;20.40;99.90
5759;DHT22;2904;48.788;9.196;2022-07-29T05:20:53;20.40;99.90
5759;DHT22;2904;48.788;9.196;2022-07-29T05:23:19;20.50;99.90
5759;DHT22;2904;48.788;9.196;2022-07-29T05:25:44;20.50;99.90
5759;DHT22;2904;48.788;9.196;2022-07-29T05:28:11;20.60;99.90
5759;DHT22;2904;48.788;9.196;2022-07-29T05:30:37;20.70;99.90
5759;DHT22;2904;48.788;9.196;2022-07-29T05:33:03;20.80;99.90
5759;DHT22;2904;48.788;9.196;2022-07-29T05:35:29;20.90;99.90
5759;DHT22;2904;48.788;9.196;2022-07-29T05:37:54;21.00;99.90
5759;DHT22;2904;48.788;9.196;2022-07-29T05:40:20;21.00;99.90
5759;DHT22;2904;48.788;9.196;2022-07-29T05:42:46;21.10;99.90
5759;DHT22;2904;48.788;9.196;2022-07-29T05:45:11;21.10;99.90
5759;DHT22;2904;48.788;9.196;2022-07-29T05:47:37;21.20;99.90
5759;DHT22;2904;48.788;9.196;2022-07-29T05:50:03;21.30;99.90
5759;DHT22;2904;48.788;9.196;2022-07-29T05:52:29;21.50;99.90
5759;DHT22;2904;48.788;9.196;2022-07-29T05:54:55;21.50;99.90
5759;DHT22;2904;48.788;9.196;2022-07-29T05:57:23;21.60;99.90
5759;DHT22;2904;48.788;9.196;2022-07-29T05:59:50;21.60;99.90
5759;DHT22;2904;48.788;9.196;2022-07-29T06:02:16;21.70;99.90
5759;DHT22;2904;48.788;9.196;2022-07-29T06:04:43;21.80;99.90
5759;DHT22;2904;48.788;9.196;2022-07-29T06:07:08;21.90;99.90
5759;DHT22;2904;48.788;9.196;2022-07-29T06:09:35;22.00;99.90
5759;DHT22;2904;48.788;9.196;2022-07-29T06:12:01;22.00;99.90
5759;DHT22;2904;48.788;9.196;2022-07-29T06:14:26;22.10;99.90
5759;DHT22;2904;48.788;9.196;2022-07-29T06:16:53;22.30;99.90
5759;DHT22;2904;48.788;9.196;2022-07-29T06:19:19;22.30;99.90
5759;DHT22;2904;48.788;9.196;2022-07-29T06:21:45;22.50;99.90
5759;DHT22;2904;48.788;9.196;2022-07-29T06:24:12;22.50;99.90
5759;DHT22;2904;48.788;9.196;2022-07-29T06:26:39;22.60;99.90
5759;DHT22;2904;48.788;9.196;2022-07-29T06:29:05;22.80;99.90
5759;DHT22;2904;48.788;9.196;2022-07-29T06:31:31;22.80;99.90
5759;DHT22;2904;48.788;9.196;2022-07-29T06:33:57;22.90;99.90
5759;DHT22;2904;48.788;9.196;2022-07-29T06:36:22;23.00;99.90
5759;DHT22;2904;48.788;9.196;2022-07-29T06:38:48;23.10;99.90
5759;DHT22;2904;48.788;9.196;2022-07-29T06:41:13;23.20;99.90
5759;DHT22;2904;48.788;9.196;2022-07-29T06:43:42;23.40;99.90
5759;DHT22;2904;48.788;9.196;2022-07-29T06:46:13;23.50;99.90
5759;DHT22;2904;48.788;9.196;2022-07-29T06:48:39;23.50;99.90
5759;DHT22;2904;48.788;9.196;2022-07-29T06:51:06;23.50;99.90
5759;DHT22;2904;48.788;9.196;2022-07-29T06:53:32;23.60;99.90
5759;DHT22;2904;48.788;9.196;2022-07-29T06:56:00;23.60;99.90
5759;DHT22;2904;48.788;9.196;2022-07-29T06:58:27;23.70;99.90
5759;DHT22;2904;48.788;9.196;2022-07-29T07:00:53;23.70;99.90
5759;DHT22;2904;48.788;9.196;2022-07-29T07:03:19;23.70;99.90
5759;DHT22;2904;48.788;9.196;2022-07-29T07:05:45;23.80;99.90
5759;DHT22;2904;48.788;9.196;2022-07-29T07:08:12;23.90;99.90
5759;DHT22;2904;48.788;9.196;2022-07-29T07:10:39;24.00;99.90
5759;DHT22;2904;48.788;9.196;2022-07-29T07:13:05;24.10;99.90
5759;DHT22;2904;48.788;9.196;2022-07-29T07:15:31;24.20;99.90
5759;DHT22;2904;48.788;9.196;2022-07-29T07:17:57;24.30;99.90
5759;DHT22;2904;48.788;9.196;2022-07-29T07:20:24;24.60;99.90
5759;DHT22;2904;48.788;9.196;2022-07-29T07:22:50;24.50;99.90
5759;DHT22;2904;48.788;9.196;2022-07-29T07:25:15;24.60;99.90
5759;DHT22;2904;48.788;9.196;2022-07-29T07:27:45;24.50;99.90
5759;DHT22;2904;48.788;9.196;2022-07-29T07:30:12;24.50;99.90
5759;DHT22;2904;48.788;9.196;2022-07-29T07:32:38;24.60;99.90
5759;DHT22;2904;48.788;9.196;2022-07-29T07:35:06;24.70;99.90
5759;DHT22;2904;48.788;9.196;2022-07-29T07:37:32;24.70;99.90
5759;DHT22;2904;48.788;9.196;2022-07-29T07:39:57;24.70;99.90
5759;DHT22;2904;48.788;9.196;2022-07-29T07:42:23;24.70;99.90
5759;DHT22;2904;48.788;9.196;2022-07-29T07:44:49;24.70;99.90
5759;DHT22;2904;48.788;9.196;2022-07-29T07:47:15;24.70;99.90
5759;DHT22;2904;48.788;9.196;2022-07-29T07:49:45;24.60;99.90
5759;DHT22;2904;48.788;9.196;2022-07-29T07:52:11;24.60;99.90
5759;DHT22;2904;48.788;9.196;2022-07-29T07:54:36;24.70;99.90
5759;DHT22;2904;48.788;9.196;2022-07-29T07:57:02;24.90;99.90
5759;DHT22;2904;48.788;9.196;2022-07-29T07:59:28;25.00;99.90
5759;DHT22;2904;48.788;9.196;2022-07-29T08:01:54;25.10;99.90
5759;DHT22;2904;48.788;9.196;2022-07-29T08:04:19;25.20;99.90
5759;DHT22;2904;48.788;9.196;2022-07-29T08:06:45;25.20;99.90
5759;DHT22;2904;48.788;9.196;2022-07-29T08:09:11;25.20;99.90
5759;DHT22;2904;48.788;9.196;2022-07-29T08:11:36;25.30;99.90
5759;DHT22;2904;48.788;9.196;2022-07-29T08:14:02;25.40;99.90
5759;DHT22;2904;48.788;9.196;2022-07-29T08:16:28;25.30;99.90
5759;DHT22;2904;48.788;9.196;2022-07-29T08:18:53;25.30;99.90
5759;DHT22;2904;48.788;9.196;2022-07-29T08:21:23;25.30;99.90
5759;DHT22;2904;48.788;9.196;2022-07-29T08:23:50;25.20;99.90
5759;DHT22;2904;48.788;9.196;2022-07-29T08:27:08;25.20;99.90
5759;DHT22;2904;48.788;9.196;2022-07-29T08:29:34;25.30;99.90
5759;DHT22;2904;48.788;9.196;2022-07-29T08:31:59;25.40;99.90
5759;DHT22;2904;48.788;9.196;2022-07-29T08:34:25;25.30;99.90
5759;DHT22;2904;48.788;9.196;2022-07-29T08:36:51;25.30;99.90
5759;DHT22;2904;48.788;9.196;2022-07-29T08:39:17;25.30;99.90
5759;DHT22;2904;48.788;9.196;2022-07-29T08:41:42;25.40;99.90
5759;DHT22;2904;48.788;9.196;2022-07-29T08:44:09;25.40;99.90
5759;DHT22;2904;48.788;9.196;2022-07-29T08:46:38;25.50;99.90
5759;DHT22;2904;48.788;9.196;2022-07-29T08:49:04;25.50;99.90
5759;DHT22;2904;48.788;9.196;2022-07-29T08:51:32;25.60;99.90
5759;DHT22;2904;48.788;9.196;2022-07-29T08:53:59;25.60;99.90
5759;DHT22;2904;48.788;9.196;2022-07-29T08:56:25;25.60;99.90
5759;DHT22;2904;48.788;9.196;2022-07-29T08:58:51;25.40;99.90
5759;DHT22;2904;48.788;9.196;2022-07-29T09:01:21;25.50;99.90
5759;DHT22;2904;48.788;9.196;2022-07-29T09:03:47;25.50;99.90
5759;DHT22;2904;48.788;9.196;2022-07-29T09:06:15;25.50;99.90
5759;DHT22;2904;48.788;9.196;2022-07-29T09:08:42;25.60;99.90
5759;DHT22;2904;48.788;9.196;2022-07-29T09:11:08;25.70;99.90
5759;DHT22;2904;48.788;9.196;2022-07-29T09:13:34;25.90;99.90
5759;DHT22;2904;48.788;9.196;2022-07-29T09:16:00;26.00;99.90
5759;DHT22;2904;48.788;9.196;2022-07-29T09:18:45;26.00;99.90
5759;DHT22;2904;48.788;9.196;2022-07-29T09:21:14;26.10;99.90
5759;DHT22;2904;48.788;9.196;2022-07-29T09:24:09;26.20;99.90
5759;DHT22;2904;48.788;9.196;2022-07-29T09:26:37;26.30;99.90
5759;DHT22;2904;48.788;9.196;2022-07-29T09:29:09;26.20;99.90
5759;DHT22;2904;48.788;9.196;2022-07-29T09:31:37;26.30;99.90
5759;DHT22;2904;48.788;9.196;2022-07-29T09:34:03;26.40;99.90
5759;DHT22;2904;48.788;9.196;2022-07-29T09:36:29;26.50;99.90
5759;DHT22;2904;48.788;9.196;2022-07-29T09:39:02;26.60;99.90
5759;DHT22;2904;48.788;9.196;2022-07-29T09:41:29;26.70;99.90
5759;DHT22;2904;48.788;9.196;2022-07-29T09:43:59;26.80;99.90
5759;DHT22;2904;48.788;9.196;2022-07-29T09:46:25;27.00;99.90
5759;DHT22;2904;48.788;9.196;2022-07-29T09:49:08;26.90;99.90
5759;DHT22;2904;48.788;9.196;2022-07-29T09:51:34;26.90;99.90
5759;DHT22;2904;48.788;9.196;2022-07-29T09:54:00;27.10;99.90
5759;DHT22;2904;48.788;9.196;2022-07-29T09:56:42;27.10;99.90
5759;DHT22;2904;48.788;9.196;2022-07-29T09:59:08;27.20;99.90
5759;DHT22;2904;48.788;9.196;2022-07-29T10:01:34;27.40;99.90
5759;DHT22;2904;48.788;9.196;2022-07-29T10:04:01;27.40;99.90
5759;DHT22;2904;48.788;9.196;2022-07-29T10:06:27;27.40;99.90
5759;DHT22;2904;48.788;9.196;2022-07-29T10:08:53;27.40;99.90
5759;DHT22;2904;48.788;9.196;2022-07-29T10:11:19;27.40;99.90
5759;DHT22;2904;48.788;9.196;2022-07-29T10:13:47;27.50;99.90
5759;DHT22;2904;48.788;9.196;2022-07-29T10:16:14;27.60;99.90
5759;DHT22;2904;48.788;9.196;2022-07-29T10:18:44;27.60;99.90
5759;DHT22;2904;48.788;9.196;2022-07-29T10:21:10;27.70;99.90
5759;DHT22;2904;48.788;9.196;2022-07-29T10:23:36;27.90;99.90
5759;DHT22;2904;48.788;9.196;2022-07-29T10:26:03;27.60;99.90
5759;DHT22;2904;48.788;9.196;2022-07-29T10:28:31;27.50;99.90
5759;DHT22;2904;48.788;9.196;2022-07-29T10:31:03;27.40;99.90
5759;DHT22;2904;48.788;9.196;2022-07-29T10:34:29;27.30;99.90
5759;DHT22;2904;48.788;9.196;2022-07-29T10:37:07;27.10;99.90
5759;DHT22;2904;48.788;9.196;2022-07-29T10:42:47;27.00;99.90
5759;DHT22;2904;48.788;9.196;2022-07-29T10:45:17;26.60;99.90
5759;DHT22;2904;48.788;9.196;2022-07-29T10:47:42;26.50;99.90
5759;DHT22;2904;48.788;9.196;2022-07-29T10:50:08;26.30;99.90
5759;DHT22;2904;48.788;9.196;2022-07-29T10:52:54;26.20;99.90
5759;DHT22;2904;48.788;9.196;2022-07-29T10:55:37;26.10;99.90
5759;DHT22;2904;48.788;9.196;2022-07-29T10:58:17;25.90;99.90
5759;DHT22;2904;48.788;9.196;2022-07-29T11:00:45;25.70;99.90
5759;DHT22;2904;48.788;9.196;2022-07-29T11:03:43;25.50;99.90
5759;DHT22;2904;48.788;9.196;2022-07-29T11:06:12;25.50;99.90
5759;DHT22;2904;48.788;9.196;2022-07-29T11:08:38;25.20;99.90
5759;DHT22;2904;48.788;9.196;2022-07-29T11:14:55;25.00;99.90
5759;DHT22;2904;48.788;9.196;2022-07-29T11:17:21;23.70;99.90
5759;DHT22;2904;48.788;9.196;2022-07-29T11:19:46;23.20;99.90
5759;DHT22;2904;48.788;9.196;2022-07-29T11:22:32;22.70;99.90
5759;DHT22;2904;48.788;9.196;2022-07-29T11:25:16;22.20;99.90
5759;DHT22;2904;48.788;9.196;2022-07-29T11:27:47;21.80;99.90
5759;DHT22;2904;48.788;9.196;2022-07-29T11:30:12;21.50;99.90
5759;DHT22;2904;48.788;9.196;2022-07-29T11:32:43;21.40;99.90
5759;DHT22;2904;48.788;9.196;2022-07-29T11:35:17;21.40;99.90
5759;DHT22;2904;48.788;9.196;2022-07-29T11:38:30;21.30;99.90
5759;DHT22;2904;48.788;9.196;2022-07-29T11:41:24;21.10;99.90
5759;DHT22;2904;48.788;9.196;2022-07-29T11:43:52;21.10;99.90
5759;DHT22;2904;48.788;9.196;2022-07-29T11:47:04;21.20;99.90
5759;DHT22;2904;48.788;9.196;2022-07-29T11:49:30;21.30;99.90
5759;DHT22;2904;48.788;9.196;2022-07-29T11:51:58;21.30;99.90
5759;DHT22;2904;48.788;9.196;2022-07-29T11:54:35;21.40;99.90
5759;DHT22;2904;48.788;9.196;2022-07-29T11:57:02;21.60;99.90
5759;DHT22;2904;48.788;9.196;2022-07-29T11:59:28;21.60;99.90
5759;DHT22;2904;48.788;9.196;2022-07-29T12:01:56;21.80;99.90
5759;DHT22;2904;48.788;9.196;2022-07-29T12:04:23;21.90;99.90
5759;DHT22;2904;48.788;9.196;2022-07-29T12:06:50;21.90;99.90
5759;DHT22;2904;48.788;9.196;2022-07-29T12:09:17;22.00;99.90
5759;DHT22;2904;48.788;9.196;2022-07-29T12:11:43;22.10;99.90
5759;DHT22;2904;48.788;9.196;2022-07-29T12:14:08;22.30;99.90
5759;DHT22;2904;48.788;9.196;2022-07-29T12:16:37;22.50;99.90
5759;DHT22;2904;48.788;9.196;2022-07-29T12:19:04;22.70;99.90
5759;DHT22;2904;48.788;9.196;2022-07-29T12:21:49;22.90;99.90
5759;DHT22;2904;48.788;9.196;2022-07-29T12:24:16;23.20;99.90
5759;DHT22;2904;48.788;9.196;2022-07-29T12:26:58;23.50;99.90
5759;DHT22;2904;48.788;9.196;2022-07-29T12:29:25;24.10;99.90
5759;DHT22;2904;48.788;9.196;2022-07-29T12:31:54;23.60;99.90
5759;DHT22;2904;48.788;9.196;2022-07-29T12:34:22;23.50;99.90
5759;DHT22;2904;48.788;9.196;2022-07-29T12:36:49;23.30;99.90
5759;DHT22;2904;48.788;9.196;2022-07-29T12:39:18;23.10;99.90
5759;DHT22;2904;48.788;9.196;2022-07-29T12:41:45;22.90;99.90
5759;DHT22;2904;48.788;9.196;2022-07-29T12:44:11;22.80;99.90
5759;DHT22;2904;48.788;9.196;2022-07-29T12:46:37;22.70;99.90
5759;DHT22;2904;48.788;9.196;2022-07-29T12:49:03;22.60;99.90
5759;DHT22;2904;48.788;9.196;2022-07-29T12:51:37;23.00;99.90
5759;DHT22;2904;48.788;9.196;2022-07-29T12:54:09;22.50;99.90
5759;DHT22;2904;48.788;9.196;2022-07-29T12:56:39;22.40;99.90
5759;DHT22;2904;48.788;9.196;2022-07-29T12:59:20;22.40;99.90
5759;DHT22;2904;48.788;9.196;2022-07-29T13:01:47;22.30;99.90
5759;DHT22;2904;48.788;9.196;2022-07-29T13:04:28;22.20;99.90
5759;DHT22;2904;48.788;9.196;2022-07-29T13:07:05;22.10;99.90
5759;DHT22;2904;48.788;9.196;2022-07-29T13:09:41;22.10;99.90
5759;DHT22;2904;48.788;9.196;2022-07-29T13:12:09;22.00;99.90
5759;DHT22;2904;48.788;9.196;2022-07-29T13:14:49;21.90;99.90
5759;DHT22;2904;48.788;9.196;2022-07-29T13:17:22;21.80;99.90
5759;DHT22;2904;48.788;9.196;2022-07-29T13:20:03;21.80;99.90
5759;DHT22;2904;48.788;9.196;2022-07-29T13:22:29;21.90;99.90
5759;DHT22;2904;48.788;9.196;2022-07-29T13:24:57;21.90;99.90
5759;DHT22;2904;48.788;9.196;2022-07-29T13:27:27;21.80;99.90
5759;DHT22;2904;48.788;9.196;2022-07-29T13:29:56;21.70;99.90
5759;DHT22;2904;48.788;9.196;2022-07-29T13:32:24;21.70;99.90
5759;DHT22;2904;48.788;9.196;2022-07-29T13:34:50;21.60;99.90
5759;DHT22;2904;48.788;9.196;2022-07-29T13:37:16;21.60;99.90
5759;DHT22;2904;48.788;9.196;2022-07-29T13:39:43;21.60;99.90
5759;DHT22;2904;48.788;9.196;2022-07-29T13:42:09;21.50;99.90
5759;DHT22;2904;48.788;9.196;2022-07-29T13:44:35;21.50;99.90
5759;DHT22;2904;48.788;9.196;2022-07-29T13:47:01;21.40;99.90
5759;DHT22;2904;48.788;9.196;2022-07-29T13:49:27;21.40;99.90
5759;DHT22;2904;48.788;9.196;2022-07-29T13:51:53;21.50;99.90
5759;DHT22;2904;48.788;9.196;2022-07-29T13:54:19;21.70;99.90
5759;DHT22;2904;48.788;9.196;2022-07-29T13:56:44;21.90;99.90
5759;DHT22;2904;48.788;9.196;2022-07-29T13:59:11;22.00;99.90
5759;DHT22;2904;48.788;9.196;2022-07-29T14:01:37;21.60;99.90
5759;DHT22;2904;48.788;9.196;2022-07-29T14:04:04;22.50;99.90
5759;DHT22;2904;48.788;9.196;2022-07-29T14:06:30;22.80;99.90
5759;DHT22;2904;48.788;9.196;2022-07-29T14:08:55;23.00;99.90
5759;DHT22;2904;48.788;9.196;2022-07-29T14:11:22;23.30;99.90
5759;DHT22;2904;48.788;9.196;2022-07-29T14:13:47;23.40;99.90
5759;DHT22;2904;48.788;9.196;2022-07-29T14:16:13;23.50;99.90
5759;DHT22;2904;48.788;9.196;2022-07-29T14:18:38;23.70;99.90
5759;DHT22;2904;48.788;9.196;2022-07-29T14:21:04;23.80;99.90
5759;DHT22;2904;48.788;9.196;2022-07-29T14:23:30;23.90;99.90
5759;DHT22;2904;48.788;9.196;2022-07-29T14:25:55;24.00;99.90
5759;DHT22;2904;48.788;9.196;2022-07-29T14:28:21;24.00;99.90
5759;DHT22;2904;48.788;9.196;2022-07-29T14:30:47;24.10;99.90
5759;DHT22;2904;48.788;9.196;2022-07-29T14:33:13;24.10;99.90
5759;DHT22;2904;48.788;9.196;2022-07-29T14:35:39;24.20;99.90
5759;DHT22;2904;48.788;9.196;2022-07-29T14:38:04;24.20;99.90
5759;DHT22;2904;48.788;9.196;2022-07-29T14:40:30;24.20;99.90
5759;DHT22;2904;48.788;9.196;2022-07-29T14:42:56;24.20;99.90
5759;DHT22;2904;48.788;9.196;2022-07-29T14:45:21;24.20;99.90
5759;DHT22;2904;48.788;9.196;2022-07-29T14:47:48;24.20;99.90
5759;DHT22;2904;48.788;9.196;2022-07-29T14:50:14;24.30;99.90
5759;DHT22;2904;48.788;9.196;2022-07-29T14:52:40;24.30;99.90
5759;DHT22;2904;48.788;9.196;2022-07-29T14:55:06;24.50;99.90
5759;DHT22;2904;48.788;9.196;2022-07-29T14:57:32;24.50;99.90
5759;DHT22;2904;48.788;9.196;2022-07-29T14:59:57;24.60;99.90
5759;DHT22;2904;48.788;9.196;2022-07-29T15:02:23;24.70;99.90
5759;DHT22;2904;48.788;9.196;2022-07-29T15:04:49;24.80;99.90
5759;DHT22;2904;48.788;9.196;2022-07-29T15:07:15;24.70;99.90
5759;DHT22;2904;48.788;9.196;2022-07-29T15:09:41;24.70;99.90
5759;DHT22;2904;48.788;9.196;2022-07-29T15:12:08;24.70;99.90
5759;DHT22;2904;48.788;9.196;2022-07-29T15:14:35;24.60;99.90
5759;DHT22;2904;48.788;9.196;2022-07-29T15:17:01;24.50;99.90
5759;DHT22;2904;48.788;9.196;2022-07-29T15:19:27;24.50;99.90
5759;DHT22;2904;48.788;9.196;2022-07-29T15:21:53;24.60;99.90
5759;DHT22;2904;48.788;9.196;2022-07-29T15:24:19;24.60;99.90
5759;DHT22;2904;48.788;9.196;2022-07-29T15:26:45;24.70;99.90
5759;DHT22;2904;48.788;9.196;2022-07-29T15:29:11;24.60;99.90
5759;DHT22;2904;48.788;9.196;2022-07-29T15:31:37;24.60;99.90
5759;DHT22;2904;48.788;9.196;2022-07-29T15:34:04;24.50;99.90
5759;DHT22;2904;48.788;9.196;2022-07-29T15:36:30;24.30;99.90
5759;DHT22;2904;48.788;9.196;2022-07-29T15:38:56;24.20;99.90
5759;DHT22;2904;48.788;9.196;2022-07-29T15:41:21;24.00;99.90
5759;DHT22;2904;48.788;9.196;2022-07-29T15:43:48;23.90;99.90
5759;DHT22;2904;48.788;9.196;2022-07-29T15:46:15;23.90;99.90
5759;DHT22;2904;48.788;9.196;2022-07-29T15:49:01;23.90;99.90
5759;DHT22;2904;48.788;9.196;2022-07-29T15:51:28;23.90;99.90
5759;DHT22;2904;48.788;9.196;2022-07-29T15:53:53;24.00;99.90
5759;DHT22;2904;48.788;9.196;2022-07-29T15:56:19;24.00;99.90
5759;DHT22;2904;48.788;9.196;2022-07-29T15:58:45;23.40;99.90
5759;DHT22;2904;48.788;9.196;2022-07-29T16:01:11;24.10;99.90
5759;DHT22;2904;48.788;9.196;2022-07-29T16:03:37;24.10;99.90
5759;DHT22;2904;48.788;9.196;2022-07-29T16:06:04;25.30;99.90
5759;DHT22;2904;48.788;9.196;2022-07-29T16:08:30;24.20;99.90
5759;DHT22;2904;48.788;9.196;2022-07-29T16:10:56;24.30;99.90
5759;DHT22;2904;48.788;9.196;2022-07-29T16:13:21;24.40;99.90
5759;DHT22;2904;48.788;9.196;2022-07-29T16:15:47;24.40;99.90
5759;DHT22;2904;48.788;9.196;2022-07-29T16:18:13;25.50;99.90
5759;DHT22;2904;48.788;9.196;2022-07-29T16:20:40;24.60;99.90
5759;DHT22;2904;48.788;9.196;2022-07-29T16:23:06;24.70;99.90
5759;DHT22;2904;48.788;9.196;2022-07-29T16:25:34;24.70;99.90